Time;durP1;ratioP1;P1;durP2;ratioP2;P2;SDS_P1;SDS_P2;PMS_P1;PMS_P2;Temp;Humidity;BMP_temperature;BMP_pressure;BME280_temperature;BME280_humidity;BME280_pressure;Samples;Min_cycle;Max_cycle;Signal;HPM_P1;HPM_P2
2022/06/21 00:01:23;;;;;;;88.80;83.53;;;;;;;19.93;100.00;100405.81;5050843;28;20056;-86
2022/06/21 00:03:54;;;;;;;92.28;86.78;;;;;;;19.92;100.00;100404.19;5053296;28;20067;-86
2022/06/21 00:06:29;;;;;;;82.10;76.75;;;;;;;19.81;100.00;100406.09;5053387;28;20139;-86
2022/06/21 00:08:56;;;;;;;80.13;75.03;;;;;;;19.80;100.00;100399.91;5052744;28;20049;-86
2022/06/21 00:11:33;;;;;;;79.32;74.63;;;;;;;20.03;100.00;100403.88;5052899;28;21086;-85
2022/06/21 00:14:02;;;;;;;67.43;63.33;;;;;;;20.06;100.00;100400.63;5053299;28;20049;-87
2022/06/21 00:16:36;;;;;;;71.85;67.55;;;;;;;20.00;100.00;100403.59;5056217;28;20404;-86
2022/06/21 00:19:04;;;;;;;58.63;54.92;;;;;;;20.02;100.00;100391.47;5056425;28;20852;-86
2022/06/21 00:21:49;;;;;;;61.35;57.40;;;;;;;20.01;100.00;100395.25;5057308;28;20053;-86
2022/06/21 00:24:17;;;;;;;68.95;64.65;;;;;;;19.97;100.00;100388.00;5055579;28;20041;-86
2022/06/21 00:26:47;;;;;;;44.17;41.28;;;;;;;19.95;100.00;100387.47;5053777;28;20056;-87
2022/06/21 00:29:17;;;;;;;45.88;42.75;;;;;;;19.98;100.00;100386.91;5051898;28;20056;-86
2022/06/21 00:31:48;;;;;;;48.20;44.60;;;;;;;19.41;100.00;100394.34;5057128;28;20136;-86
2022/06/21 00:34:18;;;;;;;89.15;83.47;;;;;;;18.94;100.00;100385.50;5057138;28;20049;-85
2022/06/21 00:36:49;;;;;;;95.43;89.82;;;;;;;19.29;100.00;100389.25;5056650;28;20059;-86
2022/06/21 00:39:21;;;;;;;74.55;69.53;;;;;;;19.14;100.00;100390.06;5056685;28;20056;-85
2022/06/21 00:41:55;;;;;;;82.45;77.10;;;;;;;19.39;100.00;100385.72;5044811;28;20045;-85
2022/06/21 00:44:32;;;;;;;69.78;65.28;;;;;;;19.10;100.00;100389.00;5039603;28;20467;-85
2022/06/21 00:47:04;;;;;;;111.13;104.57;;;;;;;19.29;100.00;100386.53;5048581;28;20091;-85
2022/06/21 00:49:36;;;;;;;100.25;93.95;;;;;;;19.47;100.00;100384.38;5056793;28;20041;-86
2022/06/21 00:52:22;;;;;;;104.65;98.03;;;;;;;19.06;100.00;100379.03;5038824;28;21976;-86
2022/06/21 00:55:01;;;;;;;70.63;65.82;;;;;;;19.11;100.00;100382.53;5040310;28;20063;-86
2022/06/21 00:57:50;;;;;;;70.38;65.60;;;;;;;19.18;100.00;100375.00;5056362;28;20129;-86
2022/06/21 01:00:28;;;;;;;69.35;64.72;;;;;;;19.37;100.00;100364.47;5055989;28;20045;-87
2022/06/21 01:02:57;;;;;;;69.72;65.15;;;;;;;19.27;100.00;100360.97;5055638;28;20056;-85
2022/06/21 01:05:30;;;;;;;46.80;43.35;;;;;;;19.23;100.00;100361.50;5044921;28;20064;-86
2022/06/21 01:07:58;;;;;;;;;;;;;;;18.77;100.00;100366.94;5056280;28;20115;-86
2022/06/21 01:10:27;;;;;;;49.97;45.97;;;;;;;18.94;100.00;100369.38;5056285;28;19920;-86
2022/06/21 01:13:02;;;;;;;62.58;58.17;;;;;;;18.66;100.00;100357.19;5049099;28;20052;-85
2022/06/21 01:15:34;;;;;;;60.88;56.58;;;;;;;18.55;100.00;100360.97;5055791;28;20492;-86
2022/06/21 01:18:14;;;;;;;66.72;62.22;;;;;;;18.82;100.00;100368.00;5038027;28;20095;-86
2022/06/21 01:20:46;;;;;;;62.40;58.03;;;;;;;18.63;100.00;100346.97;5046335;28;20053;-85
2022/06/21 01:23:26;;;;;;;60.22;55.85;;;;;;;17.91;100.00;100355.97;5056096;28;20194;-85
2022/06/21 01:26:05;;;;;;;53.35;49.42;;;;;;;18.02;100.00;100355.75;5055231;28;20064;-85
2022/06/21 01:28:57;;;;;;;54.05;49.55;;;;;;;18.30;100.00;100362.53;5050761;28;20048;-86
2022/06/21 01:31:34;;;;;;;57.80;53.33;;;;;;;17.97;100.00;100355.75;5055551;28;20049;-85
2022/06/21 01:34:13;;;;;;;54.35;50.25;;;;;;;17.61;100.00;100347.50;5055934;28;20416;-84
2022/06/21 01:37:06;;;;;;;55.65;51.55;;;;;;;17.71;100.00;100354.78;5055682;28;20041;-87
2022/06/21 01:39:46;;;;;;;56.60;52.25;;;;;;;17.88;100.00;100353.81;5044572;28;20049;-86
2022/06/21 01:42:31;;;;;;;54.70;50.38;;;;;;;17.78;100.00;100370.69;5044472;28;20092;-86
2022/06/21 01:45:04;;;;;;;56.05;51.28;;;;;;;18.21;100.00;100364.13;5035708;28;20107;-86
2022/06/21 01:47:40;;;;;;;54.28;50.08;;;;;;;18.28;100.00;100364.69;5042583;28;20106;-85
2022/06/21 01:50:15;;;;;;;52.28;48.28;;;;;;;17.75;100.00;100352.38;5041903;28;20070;-86
2022/06/21 01:52:48;;;;;;;62.08;57.65;;;;;;;18.03;100.00;100352.00;5055582;28;20390;-86
2022/06/21 01:55:22;;;;;;;56.33;52.22;;;;;;;17.69;100.00;100358.81;5055477;28;20087;-86
2022/06/21 01:57:52;;;;;;;59.22;55.22;;;;;;;17.79;100.00;100361.56;5055489;28;20592;-85
2022/06/21 02:02:58;;;;;;;52.67;48.70;;;;;;;17.86;100.00;100359.47;5033351;28;20053;-87
2022/06/21 02:05:32;;;;;;;49.58;45.90;;;;;;;18.02;100.00;100371.06;5040488;28;20385;-87
2022/06/21 02:08:06;;;;;;;48.38;44.88;;;;;;;17.76;100.00;100362.06;5030004;28;20049;-86
2022/06/21 02:10:37;;;;;;;59.65;54.97;;;;;;;17.98;100.00;100370.78;5048607;28;20049;-87
2022/06/21 02:13:12;;;;;;;58.50;52.85;;;;;;;17.70;100.00;100366.63;5041044;28;20053;-86
2022/06/21 02:15:44;;;;;;;63.90;57.90;;;;;;;17.48;100.00;100360.56;5037281;28;20053;-86
2022/06/21 02:18:22;;;;;;;58.13;52.30;;;;;;;17.88;100.00;100351.91;5033261;28;20461;-86
2022/06/21 02:20:57;;;;;;;57.47;51.67;;;;;;;17.61;100.00;100360.13;5037158;28;20322;-87
2022/06/21 02:23:24;;;;;;;124.55;116.45;;;;;;;16.98;100.00;100362.69;5040839;28;20068;-88
2022/06/21 02:25:56;;;;;;;192.70;181.20;;;;;;;17.44;100.00;100371.03;5039860;28;20041;-87
2022/06/21 02:28:28;;;;;;;148.98;139.35;;;;;;;17.63;100.00;100360.66;5046863;28;20059;-85
2022/06/21 02:30:59;;;;;;;166.45;156.05;;;;;;;17.46;100.00;100366.22;5041367;28;20424;-85
2022/06/21 02:33:30;;;;;;;167.43;157.13;;;;;;;17.44;100.00;100362.19;5040669;28;20080;-84
2022/06/21 02:36:02;;;;;;;151.15;141.63;;;;;;;17.48;100.00;100360.56;5035242;28;20081;-87
2022/06/21 02:38:55;;;;;;;157.48;147.18;;;;;;;17.32;100.00;100354.31;5027012;28;20038;-86
2022/06/21 02:41:40;;;;;;;;;;;;;;;16.86;100.00;100349.44;5018328;28;20092;-86
2022/06/21 02:44:15;;;;;;;120.30;112.38;;;;;;;16.78;100.00;100354.47;5020109;28;19980;-86
2022/06/21 02:46:48;;;;;;;124.55;115.63;;;;;;;17.40;100.00;100354.66;5037731;28;20041;-88
2022/06/21 02:49:23;;;;;;;114.78;106.57;;;;;;;17.50;100.00;100351.19;5031474;28;20405;-87
2022/06/21 02:51:58;;;;;;;96.22;88.47;;;;;;;17.20;100.00;100348.34;5032930;28;20493;-87
2022/06/21 02:54:33;;;;;;;63.03;56.45;;;;;;;17.32;100.00;100348.94;5029475;28;20397;-86
2022/06/21 02:57:21;;;;;;;54.90;48.55;;;;;;;17.59;100.00;100352.31;5021930;28;20049;-88
2022/06/21 02:59:50;;;;;;;58.92;51.72;;;;;;;17.71;100.00;100337.88;5036024;28;20056;-87
2022/06/21 03:02:21;;;;;;;67.82;56.00;;;;;;;17.32;100.00;100330.97;5031071;28;20057;-86
2022/06/21 03:05:01;;;;;;;71.17;63.67;;;;;;;17.21;100.00;100337.34;5018937;28;20045;-88
2022/06/21 03:08:10;;;;;;;61.00;54.60;;;;;;;17.53;100.00;100339.13;5036423;28;20084;-87
2022/06/21 03:11:03;;;;;;;54.25;47.83;;;;;;;17.91;100.00;100327.22;5053481;28;20467;-87
2022/06/21 03:13:35;;;;;;;57.30;51.22;;;;;;;18.10;100.00;100324.88;5030747;28;20049;-87
2022/06/21 03:16:24;;;;;;;52.25;46.72;;;;;;;18.03;100.00;100324.31;5031325;28;20049;-87
2022/06/21 03:18:58;;;;;;;57.90;51.78;;;;;;;18.04;100.00;100331.31;5028580;28;20128;-87
2022/06/21 03:21:48;;;;;;;58.40;52.00;;;;;;;18.04;100.00;100329.44;5027701;28;20467;-88
2022/06/21 03:24:19;;;;;;;67.07;59.97;;;;;;;18.34;100.00;100321.69;5016537;28;20138;-87
2022/06/21 03:27:09;;;;;;;66.95;55.08;;;;;;;18.00;100.00;100320.28;5026284;28;20052;-88
2022/06/21 03:29:53;;;;;;;65.55;54.33;;;;;;;18.06;100.00;100318.41;5086900;27;20406;-85
2022/06/21 03:32:37;;;;;;;66.43;55.25;;;;;;;18.30;100.00;100314.13;5054771;28;20520;-85
2022/06/21 03:35:07;;;;;;;58.10;50.33;;;;;;;18.54;100.00;100314.44;5051793;28;20107;-84
2022/06/21 03:37:37;;;;;;;53.22;49.33;;;;;;;18.65;100.00;100307.19;5054282;28;20502;-86
2022/06/21 03:42:59;;;;;;;51.88;48.17;;;;;;;18.67;100.00;100296.13;5051773;28;20243;-85
2022/06/21 03:45:40;;;;;;;50.38;46.72;;;;;;;18.98;100.00;100307.72;5051194;28;20049;-86
2022/06/21 03:48:21;;;;;;;48.17;44.85;;;;;;;18.90;100.00;100300.19;5054205;28;20071;-88
2022/06/21 03:50:57;;;;;;;43.30;40.22;;;;;;;19.31;100.00;100289.34;5066527;28;20048;-84
2022/06/21 03:53:27;;;;;;;43.20;40.70;;;;;;;19.60;100.00;100294.88;5059887;28;20056;-85
2022/06/21 03:56:03;;;;;;;40.58;37.88;;;;;;;19.87;100.00;100281.06;5032177;28;20123;-86
2022/06/21 03:58:49;;;;;;;37.65;35.50;;;;;;;19.84;100.00;100281.59;5059099;28;20043;-88
2022/06/21 04:01:29;;;;;;;37.72;35.53;;;;;;;19.92;100.00;100283.72;5051906;28;20049;-86
2022/06/21 04:04:15;;;;;;;37.70;35.60;;;;;;;19.99;100.00;100281.50;5054837;28;20056;-85
2022/06/21 04:06:52;;;;;;;39.80;37.38;;;;;;;20.18;100.00;100260.09;5054715;28;20049;-85
2022/06/21 04:09:31;;;;;;;45.22;42.30;;;;;;;20.30;100.00;100270.53;5066221;28;20059;-87
2022/06/21 04:12:05;;;;;;;59.65;55.05;;;;;;;20.34;100.00;100266.19;5043089;28;20041;-86
2022/06/21 04:14:47;;;;;;;58.10;53.78;;;;;;;20.54;100.00;100257.94;5054799;28;20045;-88
2022/06/21 04:20:43;;;;;;;35.25;33.15;;;;;;;20.85;100.00;100256.84;5050547;28;20185;-85
2022/06/21 04:23:17;;;;;;;32.45;30.00;;;;;;;20.75;100.00;100255.88;5050219;28;20079;-88
2022/06/21 04:25:57;;;;;;;30.30;28.50;;;;;;;20.79;100.00;100261.53;5050849;28;20044;-87
2022/06/21 04:28:30;;;;;;;31.20;29.30;;;;;;;20.93;100.00;100262.44;5048879;28;20049;-86
2022/06/21 04:34:22;;;;;;;28.50;26.80;;;;;;;21.59;100.00;100263.59;5070597;28;20057;-87
2022/06/21 04:37:09;;;;;;;29.17;27.48;;;;;;;21.81;100.00;100257.63;5032576;28;20054;-88
2022/06/21 04:39:56;;;;;;;29.20;27.52;;;;;;;21.86;100.00;100256.75;5046092;28;20056;-88
2022/06/21 04:42:44;;;;;;;28.88;27.17;;;;;;;22.00;100.00;100257.63;5048600;28;20056;-87
2022/06/21 04:45:27;;;;;;;28.90;27.30;;;;;;;22.14;100.00;100260.38;5039525;28;20495;-86
2022/06/21 04:48:14;;;;;;;;;;;;;;;22.34;100.00;100254.69;5037371;28;20064;-88
2022/06/21 04:50:59;;;;;;;29.40;27.92;;;;;;;22.47;100.00;100257.75;5032995;28;19946;-86
2022/06/21 04:53:44;;;;;;;28.55;27.05;;;;;;;22.63;100.00;100261.78;5036573;28;20824;-87
2022/06/21 04:56:26;;;;;;;30.33;28.73;;;;;;;22.72;100.00;100261.91;5034561;28;20050;-87
2022/06/21 04:58:56;;;;;;;30.83;28.77;;;;;;;22.74;100.00;100257.81;5031314;28;20049;-86
2022/06/21 05:01:37;;;;;;;31.92;30.15;;;;;;;23.00;100.00;100249.25;5036333;28;20045;-87
2022/06/21 05:04:18;;;;;;;30.30;28.42;;;;;;;23.25;100.00;100243.31;5046631;28;20063;-86
2022/06/21 05:07:07;;;;;;;28.42;26.75;;;;;;;23.36;100.00;100235.81;5028965;28;20456;-86
2022/06/21 05:12:48;;;;;;;26.63;25.13;;;;;;;23.68;100.00;100240.25;5027624;28;20103;-87
2022/06/21 05:15:26;;;;;;;26.27;24.77;;;;;;;24.04;100.00;100235.97;5032677;28;20053;-88
2022/06/21 05:21:18;;;;;;;26.10;24.60;;;;;;;24.09;100.00;100236.63;5044713;28;20056;-87
2022/06/21 05:23:47;;;;;;;25.55;24.15;;;;;;;23.86;100.00;100227.66;5039770;28;20064;-85
2022/06/21 05:26:34;;;;;;;25.58;24.27;;;;;;;24.18;100.00;100232.06;5049005;28;20430;-87
2022/06/21 05:29:10;;;;;;;28.65;26.95;;;;;;;24.29;100.00;100229.91;5016269;28;20116;-86
2022/06/21 05:31:44;;;;;;;27.90;26.33;;;;;;;24.26;100.00;100235.16;5028337;28;20057;-85
2022/06/21 05:34:28;;;;;;;27.63;26.13;;;;;;;24.12;100.00;100225.16;5016625;28;20077;-86
2022/06/21 05:37:14;;;;;;;28.90;27.20;;;;;;;24.36;100.00;100233.00;5035858;28;20060;-87
2022/06/21 05:39:46;;;;;;;28.30;25.85;;;;;;;24.43;100.00;100229.88;5037704;28;20060;-87
2022/06/21 05:42:29;;;;;;;28.23;26.67;;;;;;;24.71;100.00;100235.91;5047163;28;20051;-87
2022/06/21 05:45:13;;;;;;;28.77;27.08;;;;;;;24.92;100.00;100230.75;5037149;28;20088;-85
2022/06/21 05:48:29;;;;;;;28.45;26.50;;;;;;;24.89;100.00;100232.16;5032122;28;20048;-86
2022/06/21 05:51:04;;;;;;;27.95;26.05;;;;;;;24.92;100.00;100231.53;5038878;28;20049;-86
2022/06/21 05:53:38;;;;;;;27.88;26.38;;;;;;;24.94;100.00;100227.72;5033422;28;20444;-86
2022/06/21 05:56:14;;;;;;;27.70;26.30;;;;;;;25.14;100.00;100224.44;5025878;28;20041;-88
2022/06/21 05:58:46;;;;;;;30.20;28.40;;;;;;;25.17;100.00;100223.81;5033991;28;20053;-85
2022/06/21 06:01:21;;;;;;;28.30;26.70;;;;;;;25.07;100.00;100224.09;5032927;28;20050;-85
2022/06/21 06:04:00;;;;;;;27.58;25.98;;;;;;;25.26;100.00;100227.34;5054609;28;20053;-86
2022/06/21 06:06:36;;;;;;;27.95;26.30;;;;;;;25.41;100.00;100230.75;5032066;28;20429;-87
2022/06/21 06:12:33;;;;;;;28.00;26.40;;;;;;;25.42;100.00;100230.44;5035716;28;20048;-85
2022/06/21 06:15:15;;;;;;;28.10;26.60;;;;;;;25.45;100.00;100229.81;5035768;28;20060;-84
2022/06/21 06:17:48;;;;;;;28.48;26.52;;;;;;;25.55;100.00;100239.56;5035059;28;20041;-85
2022/06/21 06:20:30;;;;;;;29.73;28.08;;;;;;;25.85;100.00;100228.91;5038666;28;20053;-85
2022/06/21 06:23:02;;;;;;;32.20;30.30;;;;;;;25.83;100.00;100233.88;5038297;28;20449;-84
2022/06/21 06:25:50;;;;;;;32.33;30.63;;;;;;;25.68;100.00;100230.47;5034982;28;20045;-85
2022/06/21 06:28:24;;;;;;;31.73;30.23;;;;;;;25.46;100.00;100222.47;5034854;28;20563;-86
2022/06/21 06:31:03;;;;;;;30.00;28.50;;;;;;;25.59;100.00;100210.63;5032462;28;20064;-86
2022/06/21 06:33:38;;;;;;;30.90;29.20;;;;;;;25.81;100.00;100218.69;5037998;28;20079;-87
2022/06/21 06:36:16;;;;;;;29.00;27.42;;;;;;;25.93;100.00;100218.03;5040928;28;20060;-86
2022/06/21 06:38:48;;;;;;;29.60;27.95;;;;;;;26.09;100.00;100225.72;5036613;28;20056;-84
2022/06/21 06:41:23;;;;;;;33.92;30.55;;;;;;;26.19;100.00;100222.66;5034795;28;20489;-85
2022/06/21 06:43:58;;;;;;;27.23;25.65;;;;;;;26.24;100.00;100223.28;5035477;28;20512;-85
2022/06/21 06:46:30;;;;;;;28.55;26.42;;;;;;;26.03;100.00;100225.06;5035953;28;20049;-84
2022/06/21 06:49:12;;;;;;;30.33;28.45;;;;;;;26.00;100.00;100220.28;5036607;28;20057;-85
2022/06/21 06:51:48;;;;;;;33.38;30.17;;;;;;;26.01;100.00;100208.25;5031206;28;20068;-84
2022/06/21 06:54:28;;;;;;;28.42;26.90;;;;;;;26.38;100.00;100206.75;5033070;28;20501;-87
2022/06/21 06:57:02;;;;;;;26.42;25.02;;;;;;;26.30;100.00;100213.03;5033598;28;20148;-86
2022/06/21 06:59:29;;;;;;;25.15;23.52;;;;;;;26.28;100.00;100221.50;5034537;28;20041;-83
2022/06/21 07:02:16;;;;;;;26.48;24.80;;;;;;;26.15;100.00;100221.69;5034240;28;20049;-84
2022/06/21 07:04:57;;;;;;;27.00;25.40;;;;;;;26.43;100.00;100222.13;5039352;28;20752;-84
2022/06/21 07:07:33;;;;;;;28.38;26.33;;;;;;;26.35;100.00;100226.44;5040310;28;21181;-82
2022/06/21 07:10:06;;;;;;;29.67;27.00;;;;;;;26.18;100.00;100224.56;5049939;28;20049;-84
2022/06/21 07:12:35;;;;;;;27.15;25.55;;;;;;;26.19;100.00;100219.94;5045814;28;20051;-84
2022/06/21 07:15:03;;;;;;;28.48;26.65;;;;;;;25.97;100.00;100220.91;5039178;28;20049;-84
2022/06/21 07:17:35;;;;;;;27.17;25.48;;;;;;;26.11;100.00;100228.88;5032882;28;20050;-85
2022/06/21 07:20:17;;;;;;;26.58;24.70;;;;;;;26.34;100.00;100234.94;5033965;28;20041;-85
2022/06/21 07:22:44;;;;;;;;;;;;;;;26.31;100.00;100228.22;5019624;28;20057;-84
2022/06/21 07:25:20;;;;;;;30.08;28.17;;;;;;;26.25;100.00;100227.59;5035767;28;19921;-84
2022/06/21 07:27:52;;;;;;;27.30;25.58;;;;;;;26.17;100.00;100233.88;5031354;28;20049;-85
2022/06/21 07:30:22;;;;;;;27.25;25.55;;;;;;;26.15;100.00;100236.09;5035451;28;20045;-83
2022/06/21 07:32:54;;;;;;;29.20;27.10;;;;;;;26.58;100.00;100216.19;5034099;28;20126;-84
2022/06/21 07:35:32;;;;;;;29.10;27.23;;;;;;;26.57;100.00;100222.75;5036968;28;20065;-84
2022/06/21 07:38:05;;;;;;;29.02;27.23;;;;;;;25.83;100.00;100233.88;5035387;28;20048;-84
2022/06/21 07:40:36;;;;;;;28.48;26.77;;;;;;;26.60;100.00;100224.03;5034798;28;20045;-84
2022/06/21 07:43:09;;;;;;;29.98;28.17;;;;;;;27.01;100.00;100214.41;5036327;28;20111;-85
2022/06/21 07:45:41;;;;;;;27.05;25.42;;;;;;;26.98;100.00;100215.06;5035651;28;20049;-84
2022/06/21 07:48:15;;;;;;;27.90;25.92;;;;;;;26.81;100.00;100210.47;5034303;28;20045;-86
2022/06/21 07:50:47;;;;;;;27.15;25.35;;;;;;;26.63;100.00;100210.56;5040739;28;20046;-84
2022/06/21 07:53:18;;;;;;;26.15;24.55;;;;;;;26.93;100.00;100216.84;5032058;28;20381;-86
2022/06/21 07:55:49;;;;;;;32.22;30.23;;;;;;;27.35;100.00;100213.41;5032690;28;20493;-85
2022/06/21 07:58:29;;;;;;;31.17;29.38;;;;;;;26.86;100.00;100219.25;5034736;28;20042;-83
2022/06/21 08:06:43;;;;;;;29.05;26.88;;;;;;;27.07;100.00;100205.69;5034441;28;20505;-84
2022/06/21 08:09:31;;;;;;;28.65;26.67;;;;;;;27.59;100.00;100202.66;5034596;28;20045;-84
2022/06/21 08:12:07;;;;;;;28.92;26.92;;;;;;;27.11;100.00;100203.94;5023034;28;20049;-85
2022/06/21 08:14:43;;;;;;;30.67;28.55;;;;;;;27.23;100.00;100213.34;5036556;28;20072;-85
2022/06/21 08:17:19;;;;;;;29.45;27.55;;;;;;;27.80;100.00;100213.59;5055377;28;20064;-85
2022/06/21 08:19:55;;;;;;;29.08;27.27;;;;;;;27.22;100.00;100214.47;5044659;28;20053;-85
2022/06/21 08:22:30;;;;;;;28.35;26.45;;;;;;;27.54;100.00;100213.78;5047201;28;20049;-84
2022/06/21 08:25:02;;;;;;;30.13;28.42;;;;;;;27.83;100.00;100212.94;5035236;28;20490;-85
2022/06/21 08:27:40;;;;;;;29.17;27.27;;;;;;;28.00;100.00;100209.25;5036229;28;20497;-86
2022/06/21 08:30:12;;;;;;;28.20;26.50;;;;;;;27.61;100.00;100208.59;5042028;28;20064;-85
2022/06/21 08:32:53;;;;;;;29.27;27.65;;;;;;;27.25;100.00;100216.53;5040143;28;20146;-86
2022/06/21 08:35:29;;;;;;;30.73;28.92;;;;;;;27.53;100.00;100212.16;5041519;28;20476;-85
2022/06/21 08:38:09;;;;;;;32.03;30.13;;;;;;;27.74;100.00;100211.38;5033115;28;20386;-86
2022/06/21 08:41:01;;;;;;;38.20;36.00;;;;;;;27.93;100.00;100205.47;5023823;28;20046;-85
2022/06/21 08:44:06;;;;;;;32.10;29.98;;;;;;;27.59;100.00;100210.03;5036204;28;20123;-86
2022/06/21 08:47:15;;;;;;;34.10;31.73;;;;;;;27.54;100.00;100207.53;5029046;28;20478;-85
2022/06/21 08:50:25;;;;;;;31.95;29.90;;;;;;;27.86;100.00;100206.81;5026142;28;20603;-84
2022/06/21 08:53:21;;;;;;;37.70;35.38;;;;;;;27.04;100.00;100200.13;5024330;28;20052;-84
2022/06/21 08:55:59;;;;;;;32.05;30.05;;;;;;;27.66;100.00;100202.16;5038462;28;20049;-84
2022/06/21 08:58:53;;;;;;;32.67;30.77;;;;;;;28.96;95.84;100197.28;5031780;28;20115;-84
2022/06/21 09:01:29;;;;;;;34.88;32.90;;;;;;;28.20;100.00;100201.34;5031029;28;20049;-84
2022/06/21 09:04:13;;;;;;;33.33;31.52;;;;;;;27.95;100.00;100204.00;5033516;28;20413;-85
2022/06/21 09:07:03;;;;;;;38.80;35.55;;;;;;;29.42;98.37;100193.25;5032471;28;20061;-84
2022/06/21 09:10:02;;;;;;;32.33;30.33;;;;;;;29.16;99.11;100203.78;5034329;28;20041;-85
2022/06/21 09:12:51;;;;;;;34.90;32.70;;;;;;;28.75;95.96;100194.66;5035548;28;20052;-85
2022/06/21 09:15:47;;;;;;;32.63;30.73;;;;;;;27.37;100.00;100187.44;5034467;28;20053;-85
2022/06/21 09:18:42;;;;;;;35.97;33.88;;;;;;;27.62;100.00;100191.09;5035114;28;20140;-85
2022/06/21 09:21:27;;;;;;;37.05;35.17;;;;;;;28.45;100.00;100175.75;5032754;28;20421;-83
2022/06/21 09:24:12;;;;;;;33.83;31.90;;;;;;;29.15;99.25;100174.84;5039149;28;20050;-85
2022/06/21 09:26:46;;;;;;;32.97;30.67;;;;;;;29.20;92.53;100172.69;5029620;28;20053;-83
2022/06/21 09:29:34;;;;;;;33.83;30.92;;;;;;;30.03;88.95;100177.78;5035013;28;20119;-85
2022/06/21 09:32:19;;;;;;;31.65;29.65;;;;;;;28.64;95.67;100172.44;5034952;28;20049;-84
2022/06/21 09:35:00;;;;;;;31.25;29.30;;;;;;;29.95;81.33;100170.53;5036139;28;20053;-83
2022/06/21 09:37:52;;;;;;;32.30;30.10;;;;;;;28.97;89.17;100168.81;5039422;28;20446;-84
2022/06/21 09:40:27;;;;;;;31.70;29.75;;;;;;;30.58;71.52;100162.41;5040757;28;20073;-83
2022/06/21 09:43:04;;;;;;;32.20;30.20;;;;;;;30.36;75.79;100161.09;5034520;28;20057;-84
2022/06/21 09:45:38;;;;;;;34.55;32.65;;;;;;;29.27;83.10;100155.69;5037619;28;20527;-85
2022/06/21 09:48:13;;;;;;;36.63;34.53;;;;;;;30.52;78.00;100159.13;5035230;28;20477;-83
2022/06/21 09:50:54;;;;;;;36.30;34.20;;;;;;;28.80;95.79;100156.16;5035501;28;20057;-86
2022/06/21 09:53:39;;;;;;;34.55;32.50;;;;;;;30.47;77.20;100158.59;5028135;28;20068;-82
2022/06/21 09:56:18;;;;;;;30.60;28.90;;;;;;;29.04;90.40;100151.84;5035423;28;20076;-84
2022/06/21 09:58:54;;;;;;;31.67;29.45;;;;;;;30.59;72.30;100155.75;5035771;28;20046;-85
2022/06/21 10:01:39;;;;;;;31.52;29.42;;;;;;;30.20;73.10;100152.00;5035125;28;20045;-84
2022/06/21 10:04:21;;;;;;;40.97;38.40;;;;;;;31.19;66.92;100133.66;5045075;28;20053;-83
2022/06/21 10:07:13;;;;;;;36.17;34.13;;;;;;;30.29;84.25;100142.53;5032118;28;20466;-83
2022/06/21 10:09:57;;;;;;;36.03;33.42;;;;;;;29.71;89.49;100133.91;5046545;28;20481;-85
2022/06/21 10:12:35;;;;;;;36.40;34.28;;;;;;;29.14;87.72;100133.06;5035793;28;20130;-84
2022/06/21 10:15:32;;;;;;;34.70;32.45;;;;;;;30.34;83.46;100128.56;5038913;28;20053;-85
2022/06/21 10:18:49;;;;;;;34.85;32.50;;;;;;;31.00;68.95;100118.78;5025185;28;20046;-85
2022/06/21 10:21:40;;;;;;;35.53;33.33;;;;;;;28.57;94.07;100114.88;4974783;28;20051;-85
2022/06/21 10:24:40;;;;;;;34.90;32.63;;;;;;;29.93;86.16;100120.81;5036472;28;20453;-84
2022/06/21 10:27:24;;;;;;;32.35;30.33;;;;;;;29.06;100.00;100112.13;5036999;28;20045;-84
2022/06/21 10:30:16;;;;;;;32.85;30.85;;;;;;;31.06;78.31;100108.31;5035397;28;20049;-84
2022/06/21 10:32:59;;;;;;;34.00;31.48;;;;;;;31.91;66.26;100100.25;5038868;28;20053;-83
2022/06/21 10:35:51;;;;;;;33.08;31.13;;;;;;;31.47;66.67;100109.59;5033311;28;20045;-84
2022/06/21 10:38:27;;;;;;;;;;;;;;;31.12;73.17;100109.63;5031400;28;20060;-85
2022/06/21 10:41:11;;;;;;;33.25;31.13;;;;;;;30.53;72.70;100110.59;5034516;28;19920;-84
2022/06/21 10:44:03;;;;;;;36.53;34.42;;;;;;;29.10;90.67;100114.94;5033888;28;20056;-85
2022/06/21 10:46:38;;;;;;;34.30;32.22;;;;;;;30.59;75.65;100090.00;5033769;28;20061;-86
2022/06/21 10:49:48;;;;;;;33.50;31.55;;;;;;;29.89;80.51;100102.34;5036610;28;20049;-83
2022/06/21 10:52:36;;;;;;;31.38;29.13;;;;;;;31.03;68.33;100093.38;5029606;28;20037;-83
2022/06/21 10:55:32;;;;;;;27.80;25.67;;;;;;;31.30;77.71;100082.56;5048428;28;20049;-83
2022/06/21 10:58:20;;;;;;;32.40;30.00;;;;;;;31.66;70.72;100089.56;5026731;28;20049;-82
2022/06/21 11:04:18;;;;;;;30.42;28.42;;;;;;;31.28;75.92;100082.13;5032384;28;20053;-88
2022/06/21 11:06:52;;;;;;;32.08;30.08;;;;;;;29.96;75.07;100073.59;5035561;28;20045;-85
2022/06/21 11:15:22;;;;;;;31.83;29.33;;;;;;;32.32;65.14;100065.63;5032937;28;20055;-86
2022/06/21 11:18:14;;;;;;;30.58;28.50;;;;;;;30.88;68.09;100074.25;5040408;28;20056;-85
2022/06/21 11:21:03;;;;;;;52.72;31.67;;;;;;;32.00;60.16;100067.06;5033119;28;20041;-87
2022/06/21 11:23:52;;;;;;;32.78;30.58;;;;;;;32.23;58.79;100067.84;5039440;28;20045;-84
2022/06/21 11:26:41;;;;;;;33.70;31.35;;;;;;;31.29;67.10;100064.53;5030536;28;20459;-84
2022/06/21 11:29:21;;;;;;;29.58;27.88;;;;;;;28.49;90.40;100061.16;5022548;28;20069;-81
2022/06/21 11:32:03;;;;;;;30.98;28.90;;;;;;;31.25;77.38;100069.13;5034813;28;20053;-83
2022/06/21 11:34:37;;;;;;;;;;;;;;;30.99;78.38;100069.78;5032504;28;20064;-82
2022/06/21 11:37:26;;;;;;;32.25;30.15;;;;;;;31.22;67.29;100061.63;5029290;28;19976;-82
2022/06/21 11:40:11;;;;;;;32.00;29.63;;;;;;;30.48;73.74;100054.16;5025534;28;20046;-81
2022/06/21 11:42:49;;;;;;;35.38;33.03;;;;;;;32.98;57.08;100068.16;5031789;28;20831;-83
2022/06/21 11:45:30;;;;;;;35.38;32.90;;;;;;;31.54;61.30;100058.75;5031414;28;20057;-83
2022/06/21 11:48:34;;;;;;;34.10;31.73;;;;;;;31.50;62.65;100050.47;5034946;28;20064;-83
2022/06/21 11:51:29;;;;;;;32.72;30.42;;;;;;;33.15;56.97;100048.34;5018791;28;20050;-83
2022/06/21 11:54:19;;;;;;;30.73;28.83;;;;;;;32.19;60.42;100058.72;5038968;28;20469;-82
2022/06/21 11:56:58;;;;;;;36.22;33.40;;;;;;;32.93;60.15;100044.53;5037330;28;20490;-83
2022/06/21 11:59:43;;;;;;;35.17;32.67;;;;;;;31.58;66.71;100043.16;5032614;28;20057;-82
2022/06/21 12:02:24;;;;;;;32.83;30.42;;;;;;;32.68;58.63;100040.63;5038454;28;20056;-83
2022/06/21 12:05:04;;;;;;;32.63;30.10;;;;;;;32.86;58.39;100038.91;5034866;28;20037;-83
2022/06/21 12:07:51;;;;;;;37.33;35.03;;;;;;;32.59;57.07;100032.69;5031859;28;20053;-82
2022/06/21 12:10:30;;;;;;;36.00;33.80;;;;;;;32.87;62.20;100029.53;5033260;28;20093;-83
2022/06/21 12:13:14;;;;;;;35.45;32.90;;;;;;;32.36;64.51;100033.50;5037988;28;20064;-83
2022/06/21 12:16:05;;;;;;;33.47;31.13;;;;;;;32.92;55.68;100036.63;5039933;28;20057;-83
2022/06/21 12:18:45;;;;;;;36.33;33.92;;;;;;;33.16;63.34;100038.13;5031060;28;20046;-83
2022/06/21 12:21:18;;;;;;;34.78;32.53;;;;;;;32.08;67.64;100022.88;5037254;28;20046;-84
2022/06/21 12:23:49;;;;;;;33.17;30.88;;;;;;;32.95;59.08;100036.69;5037578;28;20084;-82
2022/06/21 12:26:27;;;;;;;31.45;29.35;;;;;;;32.85;55.66;100018.09;5044777;28;20060;-83
2022/06/21 12:28:58;;;;;;;32.75;30.20;;;;;;;32.79;56.93;100016.84;5033803;28;20053;-82
2022/06/21 12:31:33;;;;;;;34.25;32.10;;;;;;;32.75;56.13;100016.00;5041609;28;20521;-83
2022/06/21 12:34:05;;;;;;;33.28;31.23;;;;;;;32.95;57.63;100022.13;5038209;28;20107;-83
2022/06/21 12:36:56;;;;;;;30.98;28.98;;;;;;;33.55;50.26;100013.03;5036430;28;20042;-82